Time;durP1;ratioP1;P1;durP2;ratioP2;P2;SDS_P1;SDS_P2;PMS_P1;PMS_P2;Temp;Humidity;BMP_temperature;BMP_pressure;BME280_temperature;BME280_humidity;BME280_pressure;Samples;Min_cycle;Max_cycle;Signal;HPM_P1;HPM_P2
2022/01/25 00:08:51;;;;;;;38.87;30.07;;;;;;;;;;5979828;29;20273;-63
2022/01/25 00:24:15;;;;;;;41.57;32.07;;;;;;;;;;5978547;29;20255;-64
2022/01/25 00:27:25;;;;;;;43.53;34.23;;;;;;;;;;5978870;29;20240;-64
2022/01/25 00:31:01;;;;;;;45.97;34.07;;;;;;;;;;5977728;29;20784;-64
2022/01/25 00:34:22;;;;;;;41.63;30.17;;;;;;;;;;5966358;29;20243;-64
2022/01/25 00:37:42;;;;;;;42.53;33.33;;;;;;;;;;5978955;29;20244;-64
2022/01/25 00:41:03;;;;;;;47.73;33.87;;;;;;;;;;5977343;29;20813;-64
2022/01/25 00:44:24;;;;;;;46.83;34.83;;;;;;;;;;5977035;29;20244;-64
2022/01/25 00:47:49;;;;;;;49.43;36.50;;;;;;;;;;5980593;29;20251;-64
2022/01/25 00:51:23;;;;;;;48.30;34.27;;;;;;;;;;5977889;29;20677;-64
2022/01/25 00:54:44;;;;;;;51.33;34.83;;;;;;;;;;5979319;29;20228;-65
2022/01/25 00:58:05;;;;;;;56.87;37.00;;;;;;;;;;5981228;29;20252;-64
2022/01/25 01:01:26;;;;;;;51.53;36.70;;;;;;;;;;5973234;29;20232;-64
2022/01/25 01:04:48;;;;;;;55.40;38.67;;;;;;;;;;5976366;29;20244;-64
2022/01/25 01:08:08;;;;;;;60.43;42.03;;;;;;;;;;5979925;29;20236;-64
2022/01/25 01:11:34;;;;;;;53.53;36.00;;;;;;;;;;5974765;29;20240;-63
2022/01/25 01:15:08;;;;;;;52.23;36.97;;;;;;;;;;5981545;29;20689;-64
2022/01/25 01:29:44;;;;;;;60.77;40.87;;;;;;;;;;5976676;29;20236;-65
2022/01/25 01:44:03;;;;;;;61.63;42.20;;;;;;;;;;5978358;29;20607;-64
2022/01/25 01:47:34;;;;;;;64.33;42.07;;;;;;;;;;5978611;29;20239;-65
2022/01/25 01:50:57;;;;;;;60.50;42.30;;;;;;;;;;5973451;29;20235;-64
2022/01/25 01:54:18;;;;;;;68.87;43.80;;;;;;;;;;5976780;29;20625;-65
2022/01/25 01:57:41;;;;;;;61.57;44.50;;;;;;;;;;5978950;29;20258;-64
2022/01/25 02:01:01;;;;;;;63.10;40.83;;;;;;;;;;5977552;29;20810;-64
2022/01/25 02:04:22;;;;;;;63.07;42.67;;;;;;;;;;5977327;29;20508;-65
2022/01/25 02:07:43;;;;;;;64.40;43.37;;;;;;;;;;5977000;29;20244;-64
2022/01/25 02:11:04;;;;;;;59.53;41.47;;;;;;;;;;5974225;29;20235;-64
2022/01/25 02:14:28;;;;;;;70.07;44.53;;;;;;;;;;5979312;29;20698;-64
2022/01/25 02:22:21;;;;;;;62.90;42.07;;;;;;;;;;5980225;29;20618;-63
2022/01/25 02:25:14;;;;;;;62.10;41.10;;;;;;;;;;5976564;29;20573;-64
2022/01/25 02:28:37;;;;;;;62.47;42.60;;;;;;;;;;5977366;29;20269;-64
2022/01/25 02:31:57;;;;;;;66.67;45.33;;;;;;;;;;5980488;29;20363;-64
2022/01/25 02:35:18;;;;;;;60.93;42.07;;;;;;;;;;5978543;29;20240;-65
2022/01/25 02:38:40;;;;;;;63.53;45.03;;;;;;;;;;5977753;29;20240;-64
2022/01/25 02:42:00;;;;;;;63.43;42.17;;;;;;;;;;5978161;29;20484;-64
2022/01/25 02:45:22;;;;;;;64.60;43.17;;;;;;;;;;5976064;29;20597;-63
2022/01/25 02:48:52;;;;;;;64.10;43.13;;;;;;;;;;5977275;29;20243;-64
2022/01/25 02:52:13;;;;;;;66.93;43.73;;;;;;;;;;5979162;29;20231;-64
2022/01/25 02:55:35;;;;;;;68.43;45.23;;;;;;;;;;5975704;29;20611;-63
2022/01/25 02:58:56;;;;;;;70.70;48.17;;;;;;;;;;5978344;29;20297;-64
2022/01/25 03:02:17;;;;;;;66.20;46.77;;;;;;;;;;5979127;29;20231;-64
2022/01/25 03:05:38;;;;;;;68.40;43.60;;;;;;;;;;5975963;29;20240;-64
2022/01/25 03:08:58;;;;;;;66.53;44.37;;;;;;;;;;5977948;29;20240;-64
2022/01/25 03:12:31;;;;;;;65.30;43.13;;;;;;;;;;5977179;29;20239;-64
2022/01/25 03:16:02;;;;;;;70.27;48.43;;;;;;;;;;5977685;29;20545;-63
2022/01/25 03:19:42;;;;;;;64.43;43.10;;;;;;;;;;5977472;29;20244;-65
2022/01/25 03:23:15;;;;;;;67.47;46.37;;;;;;;;;;5980449;29;20239;-64
2022/01/25 03:26:36;;;;;;;69.97;46.03;;;;;;;;;;5979849;29;20603;-65
2022/01/25 03:29:58;;;;;;;65.73;43.07;;;;;;;;;;5983155;29;20240;-65
2022/01/25 03:33:19;;;;;;;65.33;43.53;;;;;;;;;;5982945;29;20273;-65
2022/01/25 03:36:40;;;;;;;65.73;43.20;;;;;;;;;;5982891;29;20774;-64
2022/01/25 03:40:01;;;;;;;64.13;43.73;;;;;;;;;;5980516;29;20255;-64
2022/01/25 03:43:22;;;;;;;62.50;43.50;;;;;;;;;;5981717;29;20240;-63
2022/01/25 03:46:57;;;;;;;63.93;44.50;;;;;;;;;;5978793;29;20236;-64
2022/01/25 03:50:21;;;;;;;69.43;47.60;;;;;;;;;;5981219;29;20235;-64
2022/01/25 03:53:41;;;;;;;71.50;47.33;;;;;;;;;;5982433;29;20547;-64
2022/01/25 03:57:02;;;;;;;65.63;42.30;;;;;;;;;;5979742;29;20243;-64
2022/01/25 04:00:22;;;;;;;66.47;43.37;;;;;;;;;;5981623;29;20248;-64
2022/01/25 04:03:53;;;;;;;75.63;46.90;;;;;;;;;;5981099;29;20233;-63
2022/01/25 04:07:16;;;;;;;71.90;47.87;;;;;;;;;;5982162;29;20231;-64
2022/01/25 04:10:39;;;;;;;61.77;43.00;;;;;;;;;;5979570;29;20232;-64
2022/01/25 04:14:00;;;;;;;70.57;46.13;;;;;;;;;;5979743;29;20235;-64
2022/01/25 04:17:21;;;;;;;72.20;47.03;;;;;;;;;;5981824;29;20330;-64
2022/01/25 04:20:55;;;;;;;65.37;45.27;;;;;;;;;;5975500;29;20231;-65
2022/01/25 04:27:54;;;;;;;69.33;45.90;;;;;;;;;;5978767;29;20260;-65
2022/01/25 04:31:18;;;;;;;64.53;45.67;;;;;;;;;;5979908;29;20227;-65
2022/01/25 04:34:42;;;;;;;68.83;46.93;;;;;;;;;;5977664;29;20382;-63
2022/01/25 04:49:04;;;;;;;67.23;43.43;;;;;;;;;;5978759;29;20236;-65
2022/01/25 04:52:30;;;;;;;66.27;44.03;;;;;;;;;;5981749;29;20232;-64
2022/01/25 04:55:58;;;;;;;69.83;49.57;;;;;;;;;;5978043;29;20251;-64
2022/01/25 04:59:25;;;;;;;69.13;46.33;;;;;;;;;;5981772;29;20247;-65
2022/01/25 05:02:52;;;;;;;66.00;46.67;;;;;;;;;;5977915;29;20821;-64
2022/01/25 05:06:15;;;;;;;62.53;44.60;;;;;;;;;;5979736;29;20634;-65
2022/01/25 05:09:37;;;;;;;77.83;56.03;;;;;;;;;;5979123;29;20256;-64
2022/01/25 05:13:14;;;;;;;67.07;45.53;;;;;;;;;;5977092;29;20239;-64
2022/01/25 05:16:47;;;;;;;61.70;44.47;;;;;;;;;;5978371;29;20513;-64
2022/01/25 05:23:43;;;;;;;76.97;47.27;;;;;;;;;;5974062;29;20239;-64
2022/01/25 05:27:04;;;;;;;68.07;47.40;;;;;;;;;;5977145;29;20642;-65
2022/01/25 05:30:26;;;;;;;68.53;45.20;;;;;;;;;;5981078;29;20236;-64
2022/01/25 05:33:47;;;;;;;68.97;45.40;;;;;;;;;;5974665;29;22301;-63
2022/01/25 05:37:08;;;;;;;67.00;45.40;;;;;;;;;;5976400;29;20267;-64
2022/01/25 05:40:41;;;;;;;68.03;46.03;;;;;;;;;;5979069;29;20243;-65
2022/01/25 05:44:21;;;;;;;68.23;44.47;;;;;;;;;;5974595;29;20257;-64
2022/01/25 05:47:44;;;;;;;67.00;47.00;;;;;;;;;;5976754;29;20232;-64
2022/01/25 05:51:04;;;;;;;74.23;50.60;;;;;;;;;;5974419;29;20323;-64
2022/01/25 05:54:24;;;;;;;70.23;47.50;;;;;;;;;;5978356;29;20243;-64
2022/01/25 05:57:45;;;;;;;74.20;48.60;;;;;;;;;;5977864;29;20591;-62
2022/01/25 06:01:06;;;;;;;68.57;46.37;;;;;;;;;;5976126;29;20235;-64
2022/01/25 06:04:28;;;;;;;71.00;45.93;;;;;;;;;;5975664;29;20232;-63
2022/01/25 06:07:48;;;;;;;70.27;45.70;;;;;;;;;;5977477;29;20330;-64
2022/01/25 06:11:08;;;;;;;68.00;42.37;;;;;;;;;;5973590;29;20236;-64
2022/01/25 06:14:29;;;;;;;69.40;46.17;;;;;;;;;;5978113;29;20655;-63
2022/01/25 06:17:50;;;;;;;77.07;51.03;;;;;;;;;;5977139;29;20258;-65
2022/01/25 06:21:12;;;;;;;63.07;45.27;;;;;;;;;;5975672;29;20240;-64
2022/01/25 06:24:32;;;;;;;69.07;47.63;;;;;;;;;;5977250;29;20236;-64
2022/01/25 06:27:53;;;;;;;70.03;44.63;;;;;;;;;;5976881;29;20248;-64
2022/01/25 06:31:15;;;;;;;72.10;47.10;;;;;;;;;;5977364;29;20513;-64
2022/01/25 06:34:35;;;;;;;72.47;45.87;;;;;;;;;;5974033;29;20240;-65
2022/01/25 06:37:57;;;;;;;72.27;44.97;;;;;;;;;;5967796;29;20247;-65
2022/01/25 06:41:18;;;;;;;69.67;46.33;;;;;;;;;;5966258;29;20251;-65
2022/01/25 06:44:39;;;;;;;69.43;47.07;;;;;;;;;;5972315;29;20244;-65
2022/01/25 07:00:50;;;;;;;67.77;42.83;;;;;;;;;;6035220;29;20244;-65
2022/01/25 07:04:11;;;;;;;68.47;49.27;;;;;;;;;;6065930;29;20264;-64
2022/01/25 07:07:31;;;;;;;71.33;44.93;;;;;;;;;;6065569;29;20241;-65
2022/01/25 07:10:52;;;;;;;62.90;43.00;;;;;;;;;;6059023;29;20237;-62
2022/01/25 07:14:13;;;;;;;60.90;37.90;;;;;;;;;;6064149;29;20454;-64
2022/01/25 07:17:34;;;;;;;61.27;43.73;;;;;;;;;;6068943;29;20232;-64
2022/01/25 07:20:54;;;;;;;56.57;39.70;;;;;;;;;;6065524;29;20397;-63
2022/01/25 07:24:15;;;;;;;67.43;44.60;;;;;;;;;;6068146;29;21163;-63
2022/01/25 07:27:36;;;;;;;68.33;44.43;;;;;;;;;;6071288;29;20233;-63
2022/01/25 07:30:57;;;;;;;59.37;43.53;;;;;;;;;;6063536;29;20245;-65
2022/01/25 07:34:21;;;;;;;61.17;43.10;;;;;;;;;;6060282;29;20323;-63
2022/01/25 07:37:41;;;;;;;59.40;41.83;;;;;;;;;;6065448;29;20248;-63
2022/01/25 07:41:04;;;;;;;63.93;43.00;;;;;;;;;;6053829;29;20238;-63
2022/01/25 07:44:28;;;;;;;60.83;40.87;;;;;;;;;;6058371;29;20233;-66
2022/01/25 07:47:50;;;;;;;54.40;39.13;;;;;;;;;;6061842;29;21795;-64
2022/01/25 07:51:10;;;;;;;62.13;41.70;;;;;;;;;;6057527;29;20237;-63
2022/01/25 07:54:31;;;;;;;56.70;40.63;;;;;;;;;;6058171;29;20256;-64
2022/01/25 07:57:52;;;;;;;57.97;40.10;;;;;;;;;;6061623;29;20607;-65
2022/01/25 08:01:15;;;;;;;58.37;41.13;;;;;;;;;;6053476;29;20237;-64
2022/01/25 08:04:37;;;;;;;68.53;42.93;;;;;;;;;;6067315;29;20233;-67
2022/01/25 08:07:58;;;;;;;63.40;41.47;;;;;;;;;;6071794;29;20241;-66
2022/01/25 08:11:19;;;;;;;59.00;39.70;;;;;;;;;;6063829;29;20241;-66
2022/01/25 08:14:42;;;;;;;67.23;41.00;;;;;;;;;;6071323;29;20229;-65
2022/01/25 08:18:02;;;;;;;62.83;43.40;;;;;;;;;;6071954;29;20241;-65
2022/01/25 08:21:25;;;;;;;65.80;43.43;;;;;;;;;;6062264;29;20238;-64
2022/01/25 08:24:45;;;;;;;63.03;40.97;;;;;;;;;;6060522;29;20327;-64
2022/01/25 08:28:06;;;;;;;57.30;38.00;;;;;;;;;;6060940;29;21102;-66
2022/01/25 08:31:27;;;;;;;64.63;44.50;;;;;;;;;;6070081;29;20237;-66
2022/01/25 08:34:48;;;;;;;61.37;40.67;;;;;;;;;;6063301;29;20245;-65
2022/01/25 08:38:10;;;;;;;63.97;43.10;;;;;;;;;;6067696;29;20237;-66
2022/01/25 08:41:30;;;;;;;65.63;42.13;;;;;;;;;;6069240;29;20777;-63
2022/01/25 08:44:51;;;;;;;61.30;41.37;;;;;;;;;;6059755;29;20246;-63
2022/01/25 08:48:12;;;;;;;63.23;42.60;;;;;;;;;;6062528;29;20225;-61
2022/01/25 08:51:32;;;;;;;61.27;40.07;;;;;;;;;;6046663;29;20564;-63
2022/01/25 08:54:54;;;;;;;64.60;42.63;;;;;;;;;;6068510;29;20245;-63
2022/01/25 08:58:14;;;;;;;61.30;40.53;;;;;;;;;;6052643;29;20240;-63
2022/01/25 09:01:35;;;;;;;62.73;39.30;;;;;;;;;;6061363;29;20537;-64
2022/01/25 09:04:56;;;;;;;56.80;38.77;;;;;;;;;;6054401;29;20882;-64
2022/01/25 09:08:21;;;;;;;57.13;39.17;;;;;;;;;;6057094;29;20236;-65
2022/01/25 09:11:43;;;;;;;63.13;41.70;;;;;;;;;;6067844;29;20225;-64
2022/01/25 09:15:04;;;;;;;60.27;41.17;;;;;;;;;;6058432;29;20563;-64
2022/01/25 09:18:25;;;;;;;61.17;40.53;;;;;;;;;;6074548;29;20545;-64
2022/01/25 09:21:46;;;;;;;60.60;40.53;;;;;;;;;;6074646;29;20225;-64
2022/01/25 09:25:07;;;;;;;54.23;37.37;;;;;;;;;;6064878;29;20312;-64
2022/01/25 09:28:29;;;;;;;67.17;38.67;;;;;;;;;;6065953;29;20241;-65
2022/01/25 09:31:50;;;;;;;64.23;42.53;;;;;;;;;;6060664;29;20233;-64
2022/01/25 09:35:10;;;;;;;54.97;36.33;;;;;;;;;;6067020;29;20237;-64
2022/01/25 09:38:32;;;;;;;58.93;39.47;;;;;;;;;;6071765;29;20241;-64
2022/01/25 09:41:53;;;;;;;60.23;37.57;;;;;;;;;;6060562;29;20241;-64
2022/01/25 09:45:15;;;;;;;56.57;38.90;;;;;;;;;;6058889;29;20236;-63
2022/01/25 09:48:36;;;;;;;53.57;36.27;;;;;;;;;;6064618;29;20240;-64
2022/01/25 09:51:57;;;;;;;58.53;39.30;;;;;;;;;;6070855;29;20233;-65
2022/01/25 09:55:22;;;;;;;61.87;37.90;;;;;;;;;;6067784;29;20636;-64
2022/01/25 09:58:44;;;;;;;54.77;36.30;;;;;;;;;;6058434;29;22039;-63
2022/01/25 10:02:07;;;;;;;50.80;36.10;;;;;;;;;;6073028;29;20233;-63
2022/01/25 10:05:31;;;;;;;49.43;34.07;;;;;;;;;;6066142;29;21135;-64
2022/01/25 10:08:53;;;;;;;52.00;35.13;;;;;;;;;;6071643;29;20260;-64
2022/01/25 10:12:17;;;;;;;51.80;35.67;;;;;;;;;;6067769;29;20233;-64
2022/01/25 10:15:37;;;;;;;45.20;32.47;;;;;;;;;;6061698;29;20233;-65
2022/01/25 10:19:02;;;;;;;52.93;36.33;;;;;;;;;;6069949;29;20245;-63
2022/01/25 10:22:23;;;;;;;47.10;34.30;;;;;;;;;;6069753;29;20250;-63
2022/01/25 10:25:45;;;;;;;51.40;34.00;;;;;;;;;;6073569;29;20225;-65
2022/01/25 10:29:06;;;;;;;55.30;36.53;;;;;;;;;;6070626;29;20233;-64
2022/01/25 10:32:26;;;;;;;47.93;33.97;;;;;;;;;;6063312;29;20233;-63
2022/01/25 10:35:48;;;;;;;50.70;35.10;;;;;;;;;;6060288;29;20336;-64
2022/01/25 10:39:09;;;;;;;49.33;33.77;;;;;;;;;;6063291;29;20561;-67
2022/01/25 10:42:31;;;;;;;50.70;34.87;;;;;;;;;;6057527;29;20249;-65
2022/01/25 10:46:19;;;;;;;53.83;36.13;;;;;;;;;;6047944;29;20221;-65
2022/01/25 10:49:43;;;;;;;47.67;33.00;;;;;;;;;;6032483;29;20226;-65
2022/01/25 10:53:07;;;;;;;52.67;32.97;;;;;;;;;;6062728;29;20316;-65
2022/01/25 10:56:33;;;;;;;41.07;32.00;;;;;;;;;;6057118;29;20237;-64
2022/01/25 10:59:58;;;;;;;43.27;30.03;;;;;;;;;;6062617;29;20272;-64
2022/01/25 11:03:25;;;;;;;45.40;30.17;;;;;;;;;;6058145;29;20697;-65
2022/01/25 11:06:46;;;;;;;47.87;32.60;;;;;;;;;;6055983;29;20242;-64
2022/01/25 11:10:08;;;;;;;45.83;32.90;;;;;;;;;;6062123;29;20233;-63
2022/01/25 11:13:38;;;;;;;49.47;32.83;;;;;;;;;;6058030;29;20252;-64
2022/01/25 11:16:59;;;;;;;42.73;31.43;;;;;;;;;;6061612;29;20241;-64
2022/01/25 11:20:19;;;;;;;36.63;28.87;;;;;;;;;;6057357;29;20253;-64
2022/01/25 11:23:41;;;;;;;44.07;31.23;;;;;;;;;;6036928;29;20314;-65
2022/01/25 11:27:04;;;;;;;39.60;29.13;;;;;;;;;;6048796;29;20241;-63
2022/01/25 11:30:25;;;;;;;42.50;32.07;;;;;;;;;;6059331;29;20558;-63
2022/01/25 11:33:47;;;;;;;45.93;31.07;;;;;;;;;;6054400;29;20257;-65
2022/01/25 11:37:08;;;;;;;44.27;30.23;;;;;;;;;;6065356;29;20237;-63
2022/01/25 11:40:30;;;;;;;40.03;29.97;;;;;;;;;;6055907;29;20299;-65
2022/01/25 11:44:09;;;;;;;45.97;33.27;;;;;;;;;;6059568;29;20755;-64
2022/01/25 11:47:31;;;;;;;48.77;32.23;;;;;;;;;;6044298;29;20517;-63
2022/01/25 11:50:52;;;;;;;46.93;32.00;;;;;;;;;;6064013;29;20804;-64
2022/01/25 11:54:12;;;;;;;46.50;32.37;;;;;;;;;;6059334;29;20233;-65
2022/01/25 11:57:45;;;;;;;41.70;31.20;;;;;;;;;;6069227;29;20607;-65
2022/01/25 12:01:16;;;;;;;41.40;29.10;;;;;;;;;;6067064;29;20316;-64
2022/01/25 12:04:36;;;;;;;50.57;33.53;;;;;;;;;;6056101;29;20228;-65
2022/01/25 12:08:07;;;;;;;46.43;30.13;;;;;;;;;;6061722;29;20503;-63
2022/01/25 12:11:31;;;;;;;45.37;32.23;;;;;;;;;;6070321;29;20245;-64
2022/01/25 12:14:55;;;;;;;41.57;30.77;;;;;;;;;;6068973;29;20635;-64
2022/01/25 12:18:34;;;;;;;44.47;30.77;;;;;;;;;;6066856;29;20233;-64
2022/01/25 12:22:11;;;;;;;43.13;27.87;;;;;;;;;;6066385;29;20229;-63
2022/01/25 12:25:48;;;;;;;38.40;26.43;;;;;;;;;;6071677;29;20328;-64
2022/01/25 12:29:23;;;;;;;38.33;29.20;;;;;;;;;;6052682;29;20249;-64
2022/01/25 12:33:02;;;;;;;46.33;30.50;;;;;;;;;;6057117;29;20260;-63
2022/01/25 12:36:35;;;;;;;41.63;28.10;;;;;;;;;;6059555;29;20245;-64
2022/01/25 12:40:17;;;;;;;39.63;28.53;;;;;;;;;;6066073;29;20686;-64
2022/01/25 12:43:39;;;;;;;38.40;29.27;;;;;;;;;;6064943;29;20619;-64
2022/01/25 12:47:05;;;;;;;35.17;27.07;;;;;;;;;;6055152;29;20241;-65
2022/01/25 12:50:25;;;;;;;32.50;24.70;;;;;;;;;;6054784;29;20233;-65
2022/01/25 12:53:47;;;;;;;33.37;24.40;;;;;;;;;;6064369;29;20388;-64
2022/01/25 12:57:09;;;;;;;35.33;25.50;;;;;;;;;;6060116;29;20236;-64
2022/01/25 13:00:30;;;;;;;35.20;26.00;;;;;;;;;;6065996;29;20639;-64
2022/01/25 13:03:52;;;;;;;36.63;26.13;;;;;;;;;;6059227;29;20229;-63
2022/01/25 13:07:12;;;;;;;35.90;25.13;;;;;;;;;;6054532;29;20242;-64
2022/01/25 13:10:34;;;;;;;38.10;26.67;;;;;;;;;;6067990;29;20406;-65
2022/01/25 13:14:01;;;;;;;36.10;25.37;;;;;;;;;;6059386;29;20230;-64
2022/01/25 13:17:23;;;;;;;37.47;25.93;;;;;;;;;;6061358;29;20229;-62
2022/01/25 13:20:47;;;;;;;33.13;23.83;;;;;;;;;;6042420;29;20252;-63
2022/01/25 13:24:11;;;;;;;30.97;22.23;;;;;;;;;;6070125;29;20332;-63
2022/01/25 13:27:35;;;;;;;31.17;23.10;;;;;;;;;;6067593;29;20233;-63
2022/01/25 13:30:56;;;;;;;32.90;23.10;;;;;;;;;;6068024;29;20237;-63
2022/01/25 13:34:22;;;;;;;28.60;23.17;;;;;;;;;;6062878;29;20233;-63
2022/01/25 13:37:43;;;;;;;28.63;20.97;;;;;;;;;;6061086;29;20571;-63
2022/01/25 13:41:15;;;;;;;28.87;21.27;;;;;;;;;;6071661;29;20229;-64
2022/01/25 13:48:15;;;;;;;29.00;21.27;;;;;;;;;;6069803;29;20506;-64
2022/01/25 13:51:41;;;;;;;24.37;19.33;;;;;;;;;;6067459;29;20241;-64
2022/01/25 13:55:07;;;;;;;30.23;20.43;;;;;;;;;;6056087;29;20332;-64
2022/01/25 13:58:30;;;;;;;23.73;17.50;;;;;;;;;;6069533;29;20237;-63
2022/01/25 14:01:51;;;;;;;24.87;18.93;;;;;;;;;;6065269;29;20240;-64
2022/01/25 14:05:14;;;;;;;23.03;16.93;;;;;;;;;;6060739;29;20241;-65
2022/01/25 14:08:35;;;;;;;23.13;19.13;;;;;;;;;;6069408;29;20245;-65
2022/01/25 14:22:55;;;;;;;25.30;17.33;;;;;;;;;;6064234;29;20514;-65
2022/01/25 14:26:16;;;;;;;23.77;18.90;;;;;;;;;;6065483;29;20237;-65
2022/01/25 14:29:40;;;;;;;22.13;16.73;;;;;;;;;;6061880;29;20292;-64
2022/01/25 14:33:02;;;;;;;24.33;17.47;;;;;;;;;;6063842;29;20237;-65
2022/01/25 14:36:23;;;;;;;20.67;15.97;;;;;;;;;;6068456;29;20237;-65
2022/01/25 14:39:45;;;;;;;19.80;16.37;;;;;;;;;;6063454;29;20277;-64
2022/01/25 14:43:06;;;;;;;20.13;17.97;;;;;;;;;;6067624;29;20241;-64
2022/01/25 14:46:27;;;;;;;23.60;16.93;;;;;;;;;;6062571;29;20233;-65
2022/01/25 14:49:48;;;;;;;21.20;15.23;;;;;;;;;;6064343;29;20564;-65
2022/01/25 14:53:10;;;;;;;19.20;15.03;;;;;;;;;;6061584;29;20241;-63
2022/01/25 14:56:33;;;;;;;22.93;17.23;;;;;;;;;;6059676;29;20328;-63
2022/01/25 14:59:54;;;;;;;25.43;17.50;;;;;;;;;;6064137;29;20233;-63
2022/01/25 15:03:14;;;;;;;24.57;17.67;;;;;;;;;;6063604;29;20319;-62
2022/01/25 15:06:35;;;;;;;23.27;18.43;;;;;;;;;;6051645;29;20229;-63
2022/01/25 15:09:58;;;;;;;21.60;16.97;;;;;;;;;;6059766;29;20237;-65
2022/01/25 15:13:26;;;;;;;19.93;16.27;;;;;;;;;;6051578;29;20233;-64
2022/01/25 15:16:47;;;;;;;27.40;19.37;;;;;;;;;;6066685;29;20229;-64
2022/01/25 15:20:09;;;;;;;25.87;16.03;;;;;;;;;;6061767;29;20242;-64
2022/01/25 15:23:32;;;;;;;23.23;16.23;;;;;;;;;;6063881;29;20233;-63
2022/01/25 15:26:54;;;;;;;27.73;15.50;;;;;;;;;;6040282;29;20273;-65
2022/01/25 15:30:16;;;;;;;18.93;15.37;;;;;;;;;;6051960;29;20233;-65
2022/01/25 15:33:37;;;;;;;23.10;16.57;;;;;;;;;;6063021;29;20503;-64
2022/01/25 15:36:58;;;;;;;20.23;15.57;;;;;;;;;;6068393;29;20241;-64
2022/01/25 15:40:19;;;;;;;23.33;17.40;;;;;;;;;;6070021;29;20320;-64
2022/01/25 15:43:48;;;;;;;19.20;15.87;;;;;;;;;;6063846;29;20249;-63
2022/01/25 15:47:11;;;;;;;19.97;15.40;;;;;;;;;;6064167;29;20236;-64
2022/01/25 15:50:32;;;;;;;21.20;16.80;;;;;;;;;;6067677;29;20461;-64
2022/01/25 15:53:53;;;;;;;19.10;14.53;;;;;;;;;;6053159;29;20238;-63
2022/01/25 15:57:13;;;;;;;18.93;15.03;;;;;;;;;;6068102;29;20257;-64
2022/01/25 16:00:34;;;;;;;21.80;15.40;;;;;;;;;;6059563;29;20241;-64
2022/01/25 16:03:56;;;;;;;17.57;14.60;;;;;;;;;;6065462;29;20260;-64
2022/01/25 16:07:16;;;;;;;20.03;14.87;;;;;;;;;;6068392;29;20522;-64
2022/01/25 16:10:38;;;;;;;25.77;16.53;;;;;;;;;;6072515;29;20323;-65
2022/01/25 16:13:58;;;;;;;18.50;14.47;;;;;;;;;;6069480;29;20245;-64
2022/01/25 16:17:19;;;;;;;18.90;14.97;;;;;;;;;;6069369;29;20233;-64
2022/01/25 16:20:41;;;;;;;17.63;15.33;;;;;;;;;;6067042;29;20618;-64
2022/01/25 16:24:05;;;;;;;21.50;16.30;;;;;;;;;;6064216;29;20241;-64
2022/01/25 16:27:26;;;;;;;18.73;15.70;;;;;;;;;;6061977;29;20233;-64
2022/01/25 16:30:46;;;;;;;20.70;15.70;;;;;;;;;;6069300;29;20237;-65
2022/01/25 16:34:06;;;;;;;21.83;15.63;;;;;;;;;;6070700;29;20237;-63
2022/01/25 16:37:28;;;;;;;18.00;16.10;;;;;;;;;;6075343;29;20241;-64
2022/01/25 16:40:49;;;;;;;19.67;15.63;;;;;;;;;;6073684;29;20233;-64
2022/01/25 16:44:10;;;;;;;17.40;14.90;;;;;;;;;;6066744;29;20245;-63
2022/01/25 16:47:32;;;;;;;17.03;14.17;;;;;;;;;;6064702;29;20229;-63
2022/01/25 16:50:53;;;;;;;16.43;14.20;;;;;;;;;;6067174;29;20233;-64
2022/01/25 16:54:14;;;;;;;16.97;13.83;;;;;;;;;;6069537;29;20335;-64
2022/01/25 16:57:35;;;;;;;19.23;15.70;;;;;;;;;;6069206;29;20261;-64
2022/01/25 17:00:56;;;;;;;15.80;13.70;;;;;;;;;;6064828;29;20229;-65
2022/01/25 17:04:17;;;;;;;16.53;13.00;;;;;;;;;;6069383;29;20623;-65
2022/01/25 17:07:38;;;;;;;18.03;14.50;;;;;;;;;;6067634;29;20720;-65
2022/01/25 17:11:00;;;;;;;18.10;15.33;;;;;;;;;;6060260;29;20232;-64
2022/01/25 17:14:21;;;;;;;15.73;12.93;;;;;;;;;;6061302;29;20233;-65
2022/01/25 17:17:41;;;;;;;16.53;13.63;;;;;;;;;;6067501;29;20548;-66
2022/01/25 17:21:02;;;;;;;16.10;13.50;;;;;;;;;;6061076;29;20815;-65
2022/01/25 17:24:22;;;;;;;19.53;15.63;;;;;;;;;;6066123;29;20260;-64
2022/01/25 17:27:44;;;;;;;15.20;13.23;;;;;;;;;;6068537;29;20317;-63
2022/01/25 17:31:05;;;;;;;19.07;14.40;;;;;;;;;;6068113;29;20221;-64
2022/01/25 17:34:26;;;;;;;17.80;14.57;;;;;;;;;;6065066;29;20619;-64
2022/01/25 17:37:46;;;;;;;16.83;14.03;;;;;;;;;;6065144;29;20237;-65
2022/01/25 17:41:08;;;;;;;15.67;12.73;;;;;;;;;;6055605;29;20242;-64
2022/01/25 17:44:30;;;;;;;17.50;15.37;;;;;;;;;;6055031;29;20516;-63
2022/01/25 17:47:51;;;;;;;17.67;14.70;;;;;;;;;;6053438;29;20795;-65
2022/01/25 17:51:11;;;;;;;17.60;15.33;;;;;;;;;;6064372;29;20233;-65
2022/01/25 17:54:32;;;;;;;19.20;14.60;;;;;;;;;;6055854;29;20237;-65
2022/01/25 17:57:52;;;;;;;18.80;15.50;;;;;;;;;;6065510;29;21799;-64
2022/01/25 18:01:14;;;;;;;17.80;14.63;;;;;;;;;;6056129;29;20352;-64
2022/01/25 18:04:35;;;;;;;17.67;14.43;;;;;;;;;;6056434;29;20241;-65
2022/01/25 18:07:56;;;;;;;22.87;16.93;;;;;;;;;;6060398;29;20238;-64
2022/01/25 18:11:17;;;;;;;18.47;15.20;;;;;;;;;;6052550;29;20230;-65
2022/01/25 18:14:37;;;;;;;21.63;15.43;;;;;;;;;;6057692;29;20246;-65
2022/01/25 18:17:59;;;;;;;19.10;15.17;;;;;;;;;;6060886;29;20296;-65
2022/01/25 18:21:20;;;;;;;17.20;14.87;;;;;;;;;;6061257;29;20229;-64
2022/01/25 18:24:57;;;;;;;19.80;15.87;;;;;;;;;;6067912;29;20320;-64
2022/01/25 18:28:17;;;;;;;21.40;16.37;;;;;;;;;;6051750;29;20241;-64
2022/01/25 18:31:39;;;;;;;20.10;14.97;;;;;;;;;;6062929;29;20742;-66
2022/01/25 18:35:01;;;;;;;22.40;17.53;;;;;;;;;;6059632;29;20241;-66
2022/01/25 18:38:22;;;;;;;20.70;16.13;;;;;;;;;;6064714;29;21526;-65
2022/01/25 18:41:44;;;;;;;21.53;15.47;;;;;;;;;;6051731;29;20241;-65
2022/01/25 18:45:05;;;;;;;20.13;15.87;;;;;;;;;;6062367;29;20237;-64
2022/01/25 18:48:29;;;;;;;19.37;15.20;;;;;;;;;;6063012;29;20241;-64
2022/01/25 18:51:51;;;;;;;20.17;14.37;;;;;;;;;;6070714;29;20497;-64
2022/01/25 18:55:11;;;;;;;20.13;15.87;;;;;;;;;;6068515;29;20237;-65
2022/01/25 18:58:32;;;;;;;21.33;16.40;;;;;;;;;;6062908;29;20323;-64
2022/01/25 19:01:54;;;;;;;19.00;14.33;;;;;;;;;;6064136;29;20508;-65
2022/01/25 19:05:16;;;;;;;20.53;17.00;;;;;;;;;;6056757;29;20241;-65
2022/01/25 19:08:37;;;;;;;20.53;15.30;;;;;;;;;;6062196;29;20323;-63
2022/01/25 19:11:58;;;;;;;19.73;14.50;;;;;;;;;;6052877;29;20237;-65
2022/01/25 19:15:18;;;;;;;21.40;16.10;;;;;;;;;;6054752;29;20496;-64
2022/01/25 19:18:39;;;;;;;17.90;15.17;;;;;;;;;;6054567;29;20241;-64
2022/01/25 19:22:00;;;;;;;22.47;16.47;;;;;;;;;;6054692;29;20240;-64
2022/01/25 19:25:21;;;;;;;20.33;14.67;;;;;;;;;;6047111;29;20691;-64
2022/01/25 19:28:42;;;;;;;17.67;14.23;;;;;;;;;;6043865;29;20517;-64
2022/01/25 19:32:04;;;;;;;20.67;16.73;;;;;;;;;;6052132;29;20260;-65
2022/01/25 19:35:24;;;;;;;19.40;14.90;;;;;;;;;;6044397;29;20230;-64
2022/01/25 19:38:48;;;;;;;20.13;15.80;;;;;;;;;;6055378;29;20254;-65
2022/01/25 19:42:11;;;;;;;21.43;15.83;;;;;;;;;;6066228;29;20308;-64
2022/01/25 19:45:31;;;;;;;23.73;18.97;;;;;;;;;;6067285;29;20229;-66
2022/01/25 19:48:55;;;;;;;22.80;16.97;;;;;;;;;;6066050;29;20631;-65
2022/01/25 19:52:18;;;;;;;23.03;17.03;;;;;;;;;;6050359;29;20234;-64
2022/01/25 19:55:41;;;;;;;18.73;15.00;;;;;;;;;;6061169;29;20538;-64
2022/01/25 19:59:05;;;;;;;22.47;17.23;;;;;;;;;;6067481;29;20301;-65
2022/01/25 20:02:28;;;;;;;21.83;15.33;;;;;;;;;;6067111;29;20253;-64
2022/01/25 20:05:48;;;;;;;20.20;16.93;;;;;;;;;;6064088;29;20248;-65
2022/01/25 20:09:09;;;;;;;20.37;15.23;;;;;;;;;;6070131;29;20234;-65
2022/01/25 20:12:30;;;;;;;21.10;16.27;;;;;;;;;;6065965;29;20233;-65
2022/01/25 20:15:58;;;;;;;19.57;15.57;;;;;;;;;;6064154;29;20256;-64
2022/01/25 20:19:19;;;;;;;20.07;15.53;;;;;;;;;;6068369;29;20276;-62
2022/01/25 20:22:46;;;;;;;17.80;14.83;;;;;;;;;;6055236;29;20237;-65
2022/01/25 20:26:18;;;;;;;20.40;15.37;;;;;;;;;;6068066;29;20245;-65
2022/01/25 20:29:42;;;;;;;20.67;15.37;;;;;;;;;;6068252;29;20233;-65
2022/01/25 20:33:04;;;;;;;18.10;15.53;;;;;;;;;;6070572;29;20237;-64
2022/01/25 20:36:26;;;;;;;18.17;14.30;;;;;;;;;;6060458;29;20225;-65
2022/01/25 20:39:46;;;;;;;24.33;17.40;;;;;;;;;;6066414;29;20226;-64
2022/01/25 20:43:08;;;;;;;17.03;13.33;;;;;;;;;;6065005;29;20225;-64
2022/01/25 20:46:29;;;;;;;18.13;13.63;;;;;;;;;;6054157;29;20619;-65
2022/01/25 20:49:51;;;;;;;15.17;13.13;;;;;;;;;;6065262;29;20245;-64
2022/01/25 20:53:11;;;;;;;14.87;12.77;;;;;;;;;;6066163;29;20229;-64
2022/01/25 20:56:32;;;;;;;17.40;13.80;;;;;;;;;;6067882;29;20241;-64
2022/01/25 20:59:52;;;;;;;17.53;13.90;;;;;;;;;;6066236;29;20237;-63
2022/01/25 21:03:21;;;;;;;17.87;13.93;;;;;;;;;;6066040;29;20491;-64
2022/01/25 21:06:45;;;;;;;17.73;13.63;;;;;;;;;;6069138;29;20237;-65
2022/01/25 21:10:06;;;;;;;18.87;14.70;;;;;;;;;;6069078;29;20682;-65